sensor_id;sensor_type;location;lat;lon;timestamp;pressure;altitude;pressure_sealevel;temperature;humidity
1832;BME280;1680;48.106;11.708;2023-04-23T00:01:16;94938.44;;;14.71;79.91
1832;BME280;1680;48.106;11.708;2023-04-23T00:03:47;94933.13;;;14.66;80.36
1832;BME280;1680;48.106;11.708;2023-04-23T00:06:15;94933.16;;;14.71;80.02
1832;BME280;1680;48.106;11.708;2023-04-23T00:08:43;94932.34;;;14.70;80.42
1832;BME280;1680;48.106;11.708;2023-04-23T00:11:11;94926.81;;;14.72;80.22
1832;BME280;1680;48.106;11.708;2023-04-23T00:13:39;94912.03;;;14.56;79.89
1832;BME280;1680;48.106;11.708;2023-04-23T00:16:07;94928.41;;;14.68;79.93
1832;BME280;1680;48.106;11.708;2023-04-23T00:18:35;94924.72;;;14.69;80.00
1832;BME280;1680;48.106;11.708;2023-04-23T00:21:04;94929.97;;;14.69;80.14
1832;BME280;1680;48.106;11.708;2023-04-23T00:23:32;94920.47;;;14.68;80.35
1832;BME280;1680;48.106;11.708;2023-04-23T00:26:00;94923.63;;;14.65;80.89
1832;BME280;1680;48.106;11.708;2023-04-23T00:28:27;94921.53;;;14.67;80.61
1832;BME280;1680;48.106;11.708;2023-04-23T00:30:54;94919.69;;;14.62;80.76
1832;BME280;1680;48.106;11.708;2023-04-23T00:33:21;94920.47;;;14.58;81.26
1832;BME280;1680;48.106;11.708;2023-04-23T00:35:48;94918.63;;;14.58;81.51
1832;BME280;1680;48.106;11.708;2023-04-23T00:38:17;94905.16;;;14.55;81.50
1832;BME280;1680;48.106;11.708;2023-04-23T00:40:45;94910.97;;;14.57;81.35
1832;BME280;1680;48.106;11.708;2023-04-23T00:43:12;94915.97;;;14.58;81.59
1832;BME280;1680;48.106;11.708;2023-04-23T00:45:40;94909.09;;;14.57;81.63
1832;BME280;1680;48.106;11.708;2023-04-23T00:48:07;94908.88;;;14.59;81.83
1832;BME280;1680;48.106;11.708;2023-04-23T00:50:35;94907.81;;;14.60;81.58
1832;BME280;1680;48.106;11.708;2023-04-23T00:53:02;94907.78;;;14.55;82.05
1832;BME280;1680;48.106;11.708;2023-04-23T00:55:31;94913.06;;;14.50;82.57
1832;BME280;1680;48.106;11.708;2023-04-23T00:57:59;94910.94;;;14.47;83.04
1832;BME280;1680;48.106;11.708;2023-04-23T01:00:26;94907.25;;;14.43;83.30
1832;BME280;1680;48.106;11.708;2023-04-23T01:02:53;94910.16;;;14.47;83.16
1832;BME280;1680;48.106;11.708;2023-04-23T01:05:22;94855.97;;;14.09;83.88
1832;BME280;1680;48.106;11.708;2023-04-23T01:07:50;94904.63;;;14.53;83.28
1832;BME280;1680;48.106;11.708;2023-04-23T01:10:17;94908.81;;;14.49;83.65
1832;BME280;1680;48.106;11.708;2023-04-23T01:12:47;94912.78;;;14.42;85.89
1832;BME280;1680;48.106;11.708;2023-04-23T01:15:14;94908.78;;;14.34;87.08
1832;BME280;1680;48.106;11.708;2023-04-23T01:17:42;94908.56;;;14.36;88.07
1832;BME280;1680;48.106;11.708;2023-04-23T01:20:09;94902.72;;;14.29;89.38
1832;BME280;1680;48.106;11.708;2023-04-23T01:22:38;94907.22;;;14.28;89.60
1832;BME280;1680;48.106;11.708;2023-04-23T01:25:07;94899.81;;;14.25;90.73
1832;BME280;1680;48.106;11.708;2023-04-23T01:27:34;94906.66;;;14.21;91.03
1832;BME280;1680;48.106;11.708;2023-04-23T01:30:03;94908.69;;;14.09;92.97
1832;BME280;1680;48.106;11.708;2023-04-23T01:32:32;94901.31;;;14.11;93.32
1832;BME280;1680;48.106;11.708;2023-04-23T01:34:59;94894.47;;;14.10;93.28
1832;BME280;1680;48.106;11.708;2023-04-23T01:37:28;94898.66;;;14.06;93.36
1832;BME280;1680;48.106;11.708;2023-04-23T01:39:57;94898.41;;;14.08;92.46
1832;BME280;1680;48.106;11.708;2023-04-23T01:42:25;94905.25;;;14.04;93.02
1832;BME280;1680;48.106;11.708;2023-04-23T01:44:53;94902.84;;;14.02;92.81
1832;BME280;1680;48.106;11.708;2023-04-23T01:47:20;94900.72;;;13.94;93.62
1832;BME280;1680;48.106;11.708;2023-04-23T01:49:48;94901.00;;;13.98;93.43
1832;BME280;1680;48.106;11.708;2023-04-23T01:52:15;94899.66;;;13.90;92.45
1832;BME280;1680;48.106;11.708;2023-04-23T01:54:43;94902.56;;;13.89;93.08
1832;BME280;1680;48.106;11.708;2023-04-23T01:57:11;94907.03;;;13.88;92.73
1832;BME280;1680;48.106;11.708;2023-04-23T01:59:39;94902.84;;;13.92;92.56
1832;BME280;1680;48.106;11.708;2023-04-23T02:02:06;94903.63;;;13.93;92.35
1832;BME280;1680;48.106;11.708;2023-04-23T02:04:39;94899.94;;;13.94;92.39
1832;BME280;1680;48.106;11.708;2023-04-23T02:07:07;94903.34;;;13.89;92.52
1832;BME280;1680;48.106;11.708;2023-04-23T02:09:34;94901.50;;;13.90;91.61
1832;BME280;1680;48.106;11.708;2023-04-23T02:12:01;94896.25;;;13.90;91.52
1832;BME280;1680;48.106;11.708;2023-04-23T02:14:30;94894.88;;;13.87;92.55
1832;BME280;1680;48.106;11.708;2023-04-23T02:16:57;94897.28;;;13.94;91.97
1832;BME280;1680;48.106;11.708;2023-04-23T02:19:25;94906.78;;;13.95;92.00
1832;BME280;1680;48.106;11.708;2023-04-23T02:21:52;94895.72;;;13.93;92.37
1832;BME280;1680;48.106;11.708;2023-04-23T02:24:19;94892.28;;;13.92;92.35
1832;BME280;1680;48.106;11.708;2023-04-23T02:26:46;94901.00;;;13.98;92.04
1832;BME280;1680;48.106;11.708;2023-04-23T02:29:13;94892.31;;;14.02;91.61
1832;BME280;1680;48.106;11.708;2023-04-23T02:31:42;94891.81;;;14.00;92.57
1832;BME280;1680;48.106;11.708;2023-04-23T02:34:09;94898.38;;;13.93;93.18
1832;BME280;1680;48.106;11.708;2023-04-23T02:36:36;94904.38;;;13.83;94.24
1832;BME280;1680;48.106;11.708;2023-04-23T02:39:03;94899.66;;;13.85;94.20
1832;BME280;1680;48.106;11.708;2023-04-23T02:41:30;94892.53;;;13.86;95.64
1832;BME280;1680;48.106;11.708;2023-04-23T02:43:58;94904.94;;;13.90;96.57
1832;BME280;1680;48.106;11.708;2023-04-23T02:46:25;94832.00;;;13.45;96.59
1832;BME280;1680;48.106;11.708;2023-04-23T02:48:53;94899.13;;;13.88;97.21
1832;BME280;1680;48.106;11.708;2023-04-23T02:51:21;94901.72;;;13.78;99.04
1832;BME280;1680;48.106;11.708;2023-04-23T02:53:48;94897.53;;;13.82;100.00
1832;BME280;1680;48.106;11.708;2023-04-23T02:56:15;94905.41;;;13.77;100.00
1832;BME280;1680;48.106;11.708;2023-04-23T02:58:42;94900.09;;;13.67;100.00
1832;BME280;1680;48.106;11.708;2023-04-23T03:01:10;94906.94;;;13.68;100.00
1832;BME280;1680;48.106;11.708;2023-04-23T03:03:37;94904.09;;;13.75;100.00
1832;BME280;1680;48.106;11.708;2023-04-23T03:06:06;94910.00;;;13.51;100.00
1832;BME280;1680;48.106;11.708;2023-04-23T03:08:34;94912.97;;;13.59;100.00
1832;BME280;1680;48.106;11.708;2023-04-23T03:11:01;94921.63;;;13.59;100.00
1832;BME280;1680;48.106;11.708;2023-04-23T03:13:28;94921.31;;;13.51;100.00
1832;BME280;1680;48.106;11.708;2023-04-23T03:15:55;94916.00;;;13.41;100.00
1832;BME280;1680;48.106;11.708;2023-04-23T03:18:23;94927.31;;;13.42;100.00
1832;BME280;1680;48.106;11.708;2023-04-23T03:20:50;94923.41;;;13.44;100.00
1832;BME280;1680;48.106;11.708;2023-04-23T03:23:19;94916.28;;;13.40;100.00
1832;BME280;1680;48.106;11.708;2023-04-23T03:25:46;94936.28;;;13.41;100.00
1832;BME280;1680;48.106;11.708;2023-04-23T03:28:13;94925.22;;;13.44;100.00
1832;BME280;1680;48.106;11.708;2023-04-23T03:30:41;94926.81;;;13.45;100.00
1832;BME280;1680;48.106;11.708;2023-04-23T03:33:08;94918.91;;;13.40;100.00
1832;BME280;1680;48.106;11.708;2023-04-23T03:35:35;94918.91;;;13.40;100.00
1832;BME280;1680;48.106;11.708;2023-04-23T03:38:02;94917.00;;;13.35;100.00
1832;BME280;1680;48.106;11.708;2023-04-23T03:40:31;94926.50;;;13.31;100.00
1832;BME280;1680;48.106;11.708;2023-04-23T03:42:58;94913.56;;;13.30;100.00
1832;BME280;1680;48.106;11.708;2023-04-23T03:45:25;94923.88;;;13.36;100.00
1832;BME280;1680;48.106;11.708;2023-04-23T03:47:52;94931.53;;;13.38;100.00
1832;BME280;1680;48.106;11.708;2023-04-23T03:50:20;94922.03;;;13.37;100.00
1832;BME280;1680;48.106;11.708;2023-04-23T03:52:47;94922.59;;;13.39;100.00
1832;BME280;1680;48.106;11.708;2023-04-23T03:55:14;94930.75;;;13.42;100.00
1832;BME280;1680;48.106;11.708;2023-04-23T03:57:43;94934.19;;;13.43;100.00
1832;BME280;1680;48.106;11.708;2023-04-23T04:00:11;94940.47;;;13.37;100.00
1832;BME280;1680;48.106;11.708;2023-04-23T04:02:39;94942.63;;;13.40;100.00
1832;BME280;1680;48.106;11.708;2023-04-23T04:05:07;94914.03;;;13.22;100.00
1832;BME280;1680;48.106;11.708;2023-04-23T04:07:35;94937.25;;;13.30;100.00
1832;BME280;1680;48.106;11.708;2023-04-23T04:10:02;94943.38;;;13.40;100.00
1832;BME280;1680;48.106;11.708;2023-04-23T04:12:30;94933.63;;;13.36;100.00
1832;BME280;1680;48.106;11.708;2023-04-23T04:14:58;94948.13;;;13.38;100.00
1832;BME280;1680;48.106;11.708;2023-04-23T04:17:27;94944.94;;;13.36;100.00
1832;BME280;1680;48.106;11.708;2023-04-23T04:19:54;94950.50;;;13.40;100.00
1832;BME280;1680;48.106;11.708;2023-04-23T04:22:21;94949.97;;;13.43;100.00
1832;BME280;1680;48.106;11.708;2023-04-23T04:24:48;94940.50;;;13.42;100.00
1832;BME280;1680;48.106;11.708;2023-04-23T04:27:16;94949.97;;;13.43;100.00
1832;BME280;1680;48.106;11.708;2023-04-23T04:29:44;94953.16;;;13.45;100.00
1832;BME280;1680;48.106;11.708;2023-04-23T04:32:12;94952.63;;;13.43;100.00
1832;BME280;1680;48.106;11.708;2023-04-23T04:34:39;94963.16;;;13.43;100.00
1832;BME280;1680;48.106;11.708;2023-04-23T04:37:07;94959.47;;;13.44;100.00
1832;BME280;1680;48.106;11.708;2023-04-23T04:39:35;94973.78;;;13.57;100.00
1832;BME280;1680;48.106;11.708;2023-04-23T04:42:03;94980.66;;;13.58;100.00
1832;BME280;1680;48.106;11.708;2023-04-23T04:44:31;94964.78;;;13.49;100.00
1832;BME280;1680;48.106;11.708;2023-04-23T04:46:58;94974.31;;;13.55;100.00
1832;BME280;1680;48.106;11.708;2023-04-23T04:49:27;94979.50;;;13.45;100.00
1832;BME280;1680;48.106;11.708;2023-04-23T04:51:54;94979.78;;;13.43;100.00
1832;BME280;1680;48.106;11.708;2023-04-23T04:54:21;94991.22;;;13.63;100.00
1832;BME280;1680;48.106;11.708;2023-04-23T04:56:48;94991.72;;;13.56;100.00
1832;BME280;1680;48.106;11.708;2023-04-23T04:59:15;94981.50;;;13.69;100.00
1832;BME280;1680;48.106;11.708;2023-04-23T05:01:43;94987.63;;;13.79;100.00
1832;BME280;1680;48.106;11.708;2023-04-23T05:04:10;94942.28;;;13.31;100.00
1832;BME280;1680;48.106;11.708;2023-04-23T05:06:39;95001.22;;;13.61;100.00
1832;BME280;1680;48.106;11.708;2023-04-23T05:09:06;95003.53;;;13.53;100.00
1832;BME280;1680;48.106;11.708;2023-04-23T05:11:34;95005.28;;;13.43;100.00
1832;BME280;1680;48.106;11.708;2023-04-23T05:14:02;95008.47;;;13.40;100.00
1832;BME280;1680;48.106;11.708;2023-04-23T05:16:29;95004.69;;;13.31;100.00
1832;BME280;1680;48.106;11.708;2023-04-23T05:18:56;95001.28;;;13.35;100.00
1832;BME280;1680;48.106;11.708;2023-04-23T05:21:23;95005.19;;;13.28;100.00
1832;BME280;1680;48.106;11.708;2023-04-23T05:23:53;95009.63;;;13.22;100.00
1832;BME280;1680;48.106;11.708;2023-04-23T05:26:20;95008.97;;;13.37;100.00
1832;BME280;1680;48.106;11.708;2023-04-23T05:28:47;95013.69;;;13.35;100.00
1832;BME280;1680;48.106;11.708;2023-04-23T05:31:14;94970.81;;;13.08;100.00
1832;BME280;1680;48.106;11.708;2023-04-23T05:33:41;95016.31;;;13.35;100.00
1832;BME280;1680;48.106;11.708;2023-04-23T05:36:09;95028.56;;;13.51;100.00
1832;BME280;1680;48.106;11.708;2023-04-23T05:38:37;95032.50;;;13.53;100.00
1832;BME280;1680;48.106;11.708;2023-04-23T05:41:06;95034.38;;;13.57;100.00
1832;BME280;1680;48.106;11.708;2023-04-23T05:43:33;95035.28;;;13.37;100.00
1832;BME280;1680;48.106;11.708;2023-04-23T05:46:00;95035.38;;;13.47;100.00
1832;BME280;1680;48.106;11.708;2023-04-23T05:48:28;95047.00;;;13.51;100.00
1832;BME280;1680;48.106;11.708;2023-04-23T05:50:56;95041.25;;;13.58;100.00
1832;BME280;1680;48.106;11.708;2023-04-23T05:53:23;95031.25;;;13.60;100.00
1832;BME280;1680;48.106;11.708;2023-04-23T05:55:50;95040.78;;;13.66;100.00
1832;BME280;1680;48.106;11.708;2023-04-23T05:58:19;95041.34;;;13.68;100.00
1832;BME280;1680;48.106;11.708;2023-04-23T06:00:46;95039.34;;;13.85;100.00
1832;BME280;1680;48.106;11.708;2023-04-23T06:03:17;95045.13;;;13.82;100.00
1832;BME280;1680;48.106;11.708;2023-04-23T06:05:46;95054.56;;;13.78;100.00
1832;BME280;1680;48.106;11.708;2023-04-23T06:08:13;95042.00;;;13.90;100.00
1832;BME280;1680;48.106;11.708;2023-04-23T06:10:40;95038.38;;;14.01;100.00
1832;BME280;1680;48.106;11.708;2023-04-23T06:13:08;95037.84;;;13.99;100.00
1832;BME280;1680;48.106;11.708;2023-04-23T06:15:36;95041.00;;;13.96;100.00
1832;BME280;1680;48.106;11.708;2023-04-23T06:18:04;95050.00;;;14.05;100.00
1832;BME280;1680;48.106;11.708;2023-04-23T06:20:31;95048.91;;;13.96;100.00
1832;BME280;1680;48.106;11.708;2023-04-23T06:22:58;95049.44;;;13.98;100.00
1832;BME280;1680;48.106;11.708;2023-04-23T06:25:27;95048.31;;;13.84;100.00
1832;BME280;1680;48.106;11.708;2023-04-23T06:27:54;95059.91;;;13.88;100.00
1832;BME280;1680;48.106;11.708;2023-04-23T06:30:22;95050.94;;;13.84;100.00
1832;BME280;1680;48.106;11.708;2023-04-23T06:32:51;95062.00;;;13.86;100.00
1832;BME280;1680;48.106;11.708;2023-04-23T06:35:18;95051.34;;;13.66;100.00
1832;BME280;1680;48.106;11.708;2023-04-23T06:37:45;95060.00;;;13.62;100.00
1832;BME280;1680;48.106;11.708;2023-04-23T06:40:13;95067.44;;;13.70;100.00
1832;BME280;1680;48.106;11.708;2023-04-23T06:42:40;95069.16;;;13.55;100.00
1832;BME280;1680;48.106;11.708;2023-04-23T06:45:10;95060.72;;;13.53;100.00
1832;BME280;1680;48.106;11.708;2023-04-23T06:47:37;95062.50;;;13.47;100.00
1832;BME280;1680;48.106;11.708;2023-04-23T06:50:07;95060.25;;;13.29;100.00
1832;BME280;1680;48.106;11.708;2023-04-23T06:52:34;95064.22;;;13.32;100.00
1832;BME280;1680;48.106;11.708;2023-04-23T06:55:01;95062.13;;;13.34;100.00
1832;BME280;1680;48.106;11.708;2023-04-23T06:57:29;95058.88;;;13.22;100.00
1832;BME280;1680;48.106;11.708;2023-04-23T06:59:56;95052.44;;;13.13;100.00
1832;BME280;1680;48.106;11.708;2023-04-23T07:02:23;95053.19;;;13.35;100.00
1832;BME280;1680;48.106;11.708;2023-04-23T07:04:51;95047.41;;;13.38;100.00
1832;BME280;1680;48.106;11.708;2023-04-23T07:07:19;95052.63;;;13.33;100.00
1832;BME280;1680;48.106;11.708;2023-04-23T07:09:46;95046.78;;;13.26;100.00
1832;BME280;1680;48.106;11.708;2023-04-23T07:12:13;95041.06;;;13.34;100.00
1832;BME280;1680;48.106;11.708;2023-04-23T07:14:41;95046.88;;;13.36;100.00
1832;BME280;1680;48.106;11.708;2023-04-23T07:17:09;95044.72;;;13.33;100.00
1832;BME280;1680;48.106;11.708;2023-04-23T07:19:36;95043.81;;;13.49;100.00
1832;BME280;1680;48.106;11.708;2023-04-23T07:22:03;95048.59;;;13.52;100.00
1832;BME280;1680;48.106;11.708;2023-04-23T07:24:32;94997.28;;;13.28;100.00
1832;BME280;1680;48.106;11.708;2023-04-23T07:26:59;95046.09;;;13.71;100.00
1832;BME280;1680;48.106;11.708;2023-04-23T07:29:27;95030.34;;;13.81;100.00
1832;BME280;1680;48.106;11.708;2023-04-23T07:31:54;95056.00;;;13.96;100.00
1832;BME280;1680;48.106;11.708;2023-04-23T07:34:21;95050.72;;;13.96;100.00
1832;BME280;1680;48.106;11.708;2023-04-23T07:36:50;95044.19;;;13.98;100.00
1832;BME280;1680;48.106;11.708;2023-04-23T07:39:17;95045.28;;;14.07;100.00
1832;BME280;1680;48.106;11.708;2023-04-23T07:41:46;95054.50;;;14.05;100.00
1832;BME280;1680;48.106;11.708;2023-04-23T07:44:13;94962.09;;;13.44;100.00
1832;BME280;1680;48.106;11.708;2023-04-23T07:46:40;95044.28;;;14.18;100.00
1832;BME280;1680;48.106;11.708;2023-04-23T07:49:07;95039.88;;;14.29;100.00
1832;BME280;1680;48.106;11.708;2023-04-23T07:51:34;95042.25;;;14.25;100.00
1832;BME280;1680;48.106;11.708;2023-04-23T07:54:02;95045.97;;;14.29;100.00
1832;BME280;1680;48.106;11.708;2023-04-23T07:56:29;95042.78;;;14.27;100.00
1832;BME280;1680;48.106;11.708;2023-04-23T07:58:59;95045.66;;;14.21;100.00
1832;BME280;1680;48.106;11.708;2023-04-23T08:01:26;95039.47;;;14.05;100.00
1832;BME280;1680;48.106;11.708;2023-04-23T08:03:54;95041.97;;;14.22;100.00
1832;BME280;1680;48.106;11.708;2023-04-23T08:06:21;95038.47;;;14.16;100.00
1832;BME280;1680;48.106;11.708;2023-04-23T08:08:49;94952.78;;;13.67;100.00
1832;BME280;1680;48.106;11.708;2023-04-23T08:11:16;95045.88;;;14.19;100.00
1832;BME280;1680;48.106;11.708;2023-04-23T08:13:44;95040.91;;;14.23;100.00
1832;BME280;1680;48.106;11.708;2023-04-23T08:16:13;95038.53;;;14.21;100.00
1832;BME280;1680;48.106;11.708;2023-04-23T08:18:40;94992.50;;;14.02;100.00
1832;BME280;1680;48.106;11.708;2023-04-23T08:21:07;95045.41;;;14.32;100.00
1832;BME280;1680;48.106;11.708;2023-04-23T08:23:37;95040.25;;;14.06;100.00
1832;BME280;1680;48.106;11.708;2023-04-23T08:26:04;95034.19;;;14.05;100.00
1832;BME280;1680;48.106;11.708;2023-04-23T08:28:31;95045.19;;;13.92;100.00
1832;BME280;1680;48.106;11.708;2023-04-23T08:30:59;95036.00;;;14.00;100.00
1832;BME280;1680;48.106;11.708;2023-04-23T08:33:27;95029.53;;;14.12;100.00
1832;BME280;1680;48.106;11.708;2023-04-23T08:35:55;95018.25;;;14.32;100.00
1832;BME280;1680;48.106;11.708;2023-04-23T08:38:22;95021.22;;;14.50;100.00
1832;BME280;1680;48.106;11.708;2023-04-23T08:40:55;95022.59;;;14.62;100.00
1832;BME280;1680;48.106;11.708;2023-04-23T08:43:30;95032.41;;;14.77;100.00
1832;BME280;1680;48.106;11.708;2023-04-23T08:46:01;95027.72;;;14.99;100.00
1832;BME280;1680;48.106;11.708;2023-04-23T08:48:33;95016.69;;;15.42;100.00
1832;BME280;1680;48.106;11.708;2023-04-23T08:51:01;95016.44;;;15.43;100.00
1832;BME280;1680;48.106;11.708;2023-04-23T08:53:28;95004.03;;;15.49;100.00
1832;BME280;1680;48.106;11.708;2023-04-23T08:55:57;95018.00;;;15.59;100.00
1832;BME280;1680;48.106;11.708;2023-04-23T08:58:26;95000.56;;;15.73;100.00
1832;BME280;1680;48.106;11.708;2023-04-23T09:00:53;95021.44;;;15.94;100.00
1832;BME280;1680;48.106;11.708;2023-04-23T09:03:22;95021.94;;;15.96;100.00
1832;BME280;1680;48.106;11.708;2023-04-23T09:05:52;95019.53;;;16.10;100.00
1832;BME280;1680;48.106;11.708;2023-04-23T09:08:20;95017.88;;;16.39;100.00
1832;BME280;1680;48.106;11.708;2023-04-23T09:10:47;95017.88;;;16.44;100.00
1832;BME280;1680;48.106;11.708;2023-04-23T09:13:15;95016.06;;;16.19;100.00
1832;BME280;1680;48.106;11.708;2023-04-23T09:15:42;95017.91;;;16.29;100.00
1832;BME280;1680;48.106;11.708;2023-04-23T09:18:10;95011.31;;;16.21;100.00
1832;BME280;1680;48.106;11.708;2023-04-23T09:20:37;95007.94;;;16.01;100.00
1832;BME280;1680;48.106;11.708;2023-04-23T09:23:07;95010.00;;;16.14;100.00
1832;BME280;1680;48.106;11.708;2023-04-23T09:25:34;95010.00;;;16.14;100.00
1832;BME280;1680;48.106;11.708;2023-04-23T09:28:06;95003.66;;;16.10;100.00
1832;BME280;1680;48.106;11.708;2023-04-23T09:30:38;95007.59;;;16.22;100.00
1832;BME280;1680;48.106;11.708;2023-04-23T09:33:06;95002.28;;;16.37;100.00
1832;BME280;1680;48.106;11.708;2023-04-23T09:35:36;95001.16;;;16.53;100.00
1832;BME280;1680;48.106;11.708;2023-04-23T09:38:07;94988.69;;;16.58;100.00
1832;BME280;1680;48.106;11.708;2023-04-23T09:40:35;94997.88;;;16.71;98.42
1832;BME280;1680;48.106;11.708;2023-04-23T09:43:03;94993.09;;;16.78;96.83
1832;BME280;1680;48.106;11.708;2023-04-23T09:45:31;94995.88;;;16.96;94.69
1832;BME280;1680;48.106;11.708;2023-04-23T09:47:59;95001.19;;;16.96;95.00
1832;BME280;1680;48.106;11.708;2023-04-23T09:50:34;94986.47;;;17.19;93.21
1832;BME280;1680;48.106;11.708;2023-04-23T09:53:02;94982.19;;;17.23;94.23
1832;BME280;1680;48.106;11.708;2023-04-23T09:55:33;94952.19;;;16.99;94.97
1832;BME280;1680;48.106;11.708;2023-04-23T09:58:03;94981.47;;;17.51;92.01
1832;BME280;1680;48.106;11.708;2023-04-23T10:00:35;94981.13;;;17.62;91.63
1832;BME280;1680;48.106;11.708;2023-04-23T10:03:03;94973.28;;;17.47;91.20
1832;BME280;1680;48.106;11.708;2023-04-23T10:05:31;94976.22;;;17.46;91.17
1832;BME280;1680;48.106;11.708;2023-04-23T10:07:58;94956.16;;;17.35;89.69
1832;BME280;1680;48.106;11.708;2023-04-23T10:10:25;94969.59;;;17.05;93.64
1832;BME280;1680;48.106;11.708;2023-04-23T10:12:54;94975.50;;;16.97;95.19
1832;BME280;1680;48.106;11.708;2023-04-23T10:15:22;94966.59;;;16.83;95.30
1832;BME280;1680;48.106;11.708;2023-04-23T10:17:51;94967.81;;;16.95;95.95
1832;BME280;1680;48.106;11.708;2023-04-23T10:20:21;94965.44;;;16.94;96.52
1832;BME280;1680;48.106;11.708;2023-04-23T10:22:48;94963.78;;;17.03;96.34
1832;BME280;1680;48.106;11.708;2023-04-23T10:25:19;94966.00;;;17.24;95.64
1832;BME280;1680;48.106;11.708;2023-04-23T10:27:48;94947.13;;;17.36;94.87
1832;BME280;1680;48.106;11.708;2023-04-23T10:30:17;94955.13;;;17.31;92.73
1832;BME280;1680;48.106;11.708;2023-04-23T10:32:47;94924.41;;;17.25;92.58
1832;BME280;1680;48.106;11.708;2023-04-23T10:35:14;94947.53;;;17.52;90.96
1832;BME280;1680;48.106;11.708;2023-04-23T10:37:43;94945.38;;;17.54;91.20
1832;BME280;1680;48.106;11.708;2023-04-23T10:40:13;94934.31;;;17.76;91.72
1832;BME280;1680;48.106;11.708;2023-04-23T10:42:42;94936.47;;;17.97;85.93
1832;BME280;1680;48.106;11.708;2023-04-23T10:45:13;94943.53;;;18.07;86.25
1832;BME280;1680;48.106;11.708;2023-04-23T10:47:46;94937.88;;;18.13;86.20
1832;BME280;1680;48.106;11.708;2023-04-23T10:50:22;94939.63;;;18.46;81.50
1832;BME280;1680;48.106;11.708;2023-04-23T10:52:50;94928.63;;;18.34;81.88
1832;BME280;1680;48.106;11.708;2023-04-23T10:55:22;94923.91;;;18.31;81.63
1832;BME280;1680;48.106;11.708;2023-04-23T10:57:57;94921.66;;;18.15;86.98
1832;BME280;1680;48.106;11.708;2023-04-23T11:00:24;94916.09;;;18.40;83.52
1832;BME280;1680;48.106;11.708;2023-04-23T11:02:54;94920.97;;;18.51;82.93
1832;BME280;1680;48.106;11.708;2023-04-23T11:05:22;94915.66;;;18.51;82.15
1832;BME280;1680;48.106;11.708;2023-04-23T11:08:05;94910.63;;;18.68;80.48
1832;BME280;1680;48.106;11.708;2023-04-23T11:10:33;94901.53;;;18.74;80.99
1832;BME280;1680;48.106;11.708;2023-04-23T11:13:21;94891.03;;;18.46;80.79
1832;BME280;1680;48.106;11.708;2023-04-23T11:16:11;94888.38;;;18.22;83.60
1832;BME280;1680;48.106;11.708;2023-04-23T11:18:59;94877.97;;;18.07;84.06
1832;BME280;1680;48.106;11.708;2023-04-23T11:21:56;94875.31;;;18.07;84.08
1832;BME280;1680;48.106;11.708;2023-04-23T11:24:24;94849.34;;;18.04;84.61
1832;BME280;1680;48.106;11.708;2023-04-23T11:26:52;94862.75;;;18.36;81.70
1832;BME280;1680;48.106;11.708;2023-04-23T11:29:21;94860.22;;;18.26;79.34
1832;BME280;1680;48.106;11.708;2023-04-23T11:31:49;94860.38;;;18.35;81.70
1832;BME280;1680;48.106;11.708;2023-04-23T11:34:18;94854.34;;;18.48;79.92
1832;BME280;1680;48.106;11.708;2023-04-23T11:36:47;94856.88;;;18.39;81.75
1832;BME280;1680;48.106;11.708;2023-04-23T11:39:14;94856.06;;;18.75;80.53
1832;BME280;1680;48.106;11.708;2023-04-23T11:41:43;94854.72;;;18.59;80.10
1832;BME280;1680;48.106;11.708;2023-04-23T11:44:12;94858.97;;;18.79;79.43
1832;BME280;1680;48.106;11.708;2023-04-23T11:46:40;94854.88;;;19.00;79.79
1832;BME280;1680;48.106;11.708;2023-04-23T11:49:07;94844.75;;;19.02;78.81
1832;BME280;1680;48.106;11.708;2023-04-23T11:51:40;94844.78;;;19.34;74.78
1832;BME280;1680;48.106;11.708;2023-04-23T11:54:09;94840.56;;;19.59;74.22
1832;BME280;1680;48.106;11.708;2023-04-23T11:56:38;94838.72;;;19.60;75.92
1832;BME280;1680;48.106;11.708;2023-04-23T11:59:05;94842.56;;;19.67;73.54
1832;BME280;1680;48.106;11.708;2023-04-23T12:01:42;94831.22;;;19.62;72.71
1832;BME280;1680;48.106;11.708;2023-04-23T12:04:12;94831.13;;;19.53;73.53
1832;BME280;1680;48.106;11.708;2023-04-23T12:06:42;94821.22;;;19.41;72.44
1832;BME280;1680;48.106;11.708;2023-04-23T12:09:10;94826.56;;;19.54;72.01
1832;BME280;1680;48.106;11.708;2023-04-23T12:11:38;94813.41;;;19.76;71.08
1832;BME280;1680;48.106;11.708;2023-04-23T12:14:06;94816.97;;;19.98;69.81
1832;BME280;1680;48.106;11.708;2023-04-23T12:16:35;94804.63;;;19.62;69.71
1832;BME280;1680;48.106;11.708;2023-04-23T12:19:03;94803.22;;;19.91;67.75
1832;BME280;1680;48.106;11.708;2023-04-23T12:21:33;94796.03;;;20.05;67.30
1832;BME280;1680;48.106;11.708;2023-04-23T12:24:04;94793.63;;;20.17;72.05
1832;BME280;1680;48.106;11.708;2023-04-23T12:26:31;94791.09;;;20.48;66.56
1832;BME280;1680;48.106;11.708;2023-04-23T12:28:58;94793.94;;;20.29;68.00
1832;BME280;1680;48.106;11.708;2023-04-23T12:31:27;94784.91;;;20.39;65.96
1832;BME280;1680;48.106;11.708;2023-04-23T12:34:01;94792.34;;;20.28;64.71
1832;BME280;1680;48.106;11.708;2023-04-23T12:36:29;94786.38;;;20.09;65.16
1832;BME280;1680;48.106;11.708;2023-04-23T12:39:21;94783.91;;;20.70;62.77
1832;BME280;1680;48.106;11.708;2023-04-23T12:41:49;94780.03;;;20.76;63.60
1832;BME280;1680;48.106;11.708;2023-04-23T12:44:17;94784.78;;;20.79;64.12
1832;BME280;1680;48.106;11.708;2023-04-23T12:46:44;94786.34;;;20.58;64.84
1832;BME280;1680;48.106;11.708;2023-04-23T12:49:11;94771.13;;;20.37;66.36
1832;BME280;1680;48.106;11.708;2023-04-23T12:51:38;94774.06;;;20.35;67.69
1832;BME280;1680;48.106;11.708;2023-04-23T12:54:05;94764.69;;;20.02;66.84
1832;BME280;1680;48.106;11.708;2023-04-23T12:56:34;94757.28;;;19.86;67.54
1832;BME280;1680;48.106;11.708;2023-04-23T12:59:02;94748.91;;;20.06;67.17
1832;BME280;1680;48.106;11.708;2023-04-23T13:01:30;94753.78;;;20.26;66.13
1832;BME280;1680;48.106;11.708;2023-04-23T13:03:57;94747.94;;;20.59;66.40
1832;BME280;1680;48.106;11.708;2023-04-23T13:06:24;94746.28;;;20.71;64.54
1832;BME280;1680;48.106;11.708;2023-04-23T13:08:53;94737.03;;;20.69;63.26
1832;BME280;1680;48.106;11.708;2023-04-23T13:11:21;94732.19;;;20.49;64.52